LGRP

Rhodes International

Airport
ICAO code
LGRP
IATA Code
RHO
Summary
ICAO Region
EUR
ICAO Territory
Location

Paradeisi, Rhodes

Serving
Rhodes
Elevation
19 ft
Coordinates
36° 24' 19" N , 28° 5' 10" E
KCC
Csa
Metar
Observation
LGRP 170420Z 23009KT CAVOK 25/19 Q1006 NOSIG
Station
Rhodes Airport
Date/Time
2022-08-17 04:20:00
Wind direction
230°
Wind speed
09 kts
Lowest cloud amount
clouds and visibility OK
Temperature
25°C
Dew point
19°C
Humidity
69%
QNH
1006 hPa
Weather condition
n/a

Description

Rhodes International Airport, "Diagoras" or Diagoras International Airport (IATA: RHO) is located on the island of Rhodes in Greece. The airport is located 14 km south west of the capital city of Rhodes, near the village of Paradisi.

Climatology

Dry-summer subtropical ”Mediterranean" climate (Köppen climate classification Csa) - characterized by hot, dry summers and mild winters. During the summer, subtropical high pressure cells dominate, making rainfall unlikely except for the occasional thunderstorm. In the winter, periodic storms bring rain (snow at higher elevations).

Runways

Designator Length Width Surface Rops
7/25 3306 45 ASP Yes/Yes

Airport map

Aerial View

Airport accidents

SKYbrary Partners:

Safety knowledge contributed by: